< Typhoon 200121 2001 Season Typhoon 200123 >
Typhoon 200122 (PODUL)
General InformationTrack Information on Google MapsDetailed Wind InformationList of All Images || NewsDisaster Info.ResourceGoogle EarthGE AnimationAtom FeedGeoJSON
Detalied Best Track (Time Zone = UTC)
Year Month Day Hour Lat. Long. Pressure (hPa) Wind (kt) Class Image Chart
2001 10 18 00 5.3 156.8 1004 0 2 Image Chart
2001 10 18 06 5.4 156.5 1004 0 2 Image Chart
2001 10 18 12 5.5 156.1 1004 0 2 Image Chart
2001 10 18 18 5.5 156.0 1004 0 2 Image Chart
2001 10 19 00 5.5 156.0 1004 0 2 Image Chart
2001 10 19 06 5.5 156.1 1004 0 2 Image Chart
2001 10 19 12 5.7 156.2 1004 0 2 Image Chart
2001 10 19 18 6.1 156.2 1002 0 2 Image Chart
2001 10 20 00 7.1 156.3 998 35 3 Image Chart
2001 10 20 06 7.7 156.3 996 35 3 Image Chart
2001 10 20 12 8.8 156.7 996 40 3 Image Chart
2001 10 20 18 9.8 156.7 992 45 3 Image Chart
2001 10 21 00 10.9 156.5 985 50 4 Image Chart
2001 10 21 06 11.8 156.3 980 50 4 Image Chart
2001 10 21 12 12.3 156.6 975 60 4 Image Chart
2001 10 21 18 13.0 156.7 970 65 5 Image Chart
2001 10 22 00 13.5 156.6 965 70 5 Image Chart
2001 10 22 06 13.9 156.7 960 70 5 Image Chart
2001 10 22 12 14.6 156.9 960 70 5 Image Chart
2001 10 22 18 14.8 157.3 955 75 5 Image Chart
2001 10 23 00 15.1 157.6 950 80 5 Image Chart
2001 10 23 06 15.5 158.0 940 85 5 Image Chart
2001 10 23 12 16.0 157.8 935 90 5 Image Chart
2001 10 23 18 16.3 157.4 930 95 5 Image Chart
2001 10 24 00 16.6 157.2 930 95 5 Image Chart
2001 10 24 06 17.1 156.9 930 95 5 Image Chart
2001 10 24 12 17.5 156.3 930 95 5 Image Chart
2001 10 24 18 18.0 155.9 930 95 5 Image Chart
2001 10 25 00 18.5 155.1 930 95 5 Image Chart
2001 10 25 06 19.3 154.5 930 95 5 Image Chart
2001 10 25 12 20.0 154.1 925 100 5 Image Chart
2001 10 25 18 20.9 154.0 925 100 5 Image Chart
2001 10 26 00 21.9 154.0 925 100 5 Image Chart
2001 10 26 06 23.2 154.3 930 95 5 Image Chart
2001 10 26 12 24.7 154.9 935 90 5 Image Chart
2001 10 26 18 26.6 155.8 945 85 5 Image Chart
2001 10 27 00 28.9 157.0 955 75 5 Image Chart
2001 10 27 06 31.4 158.5 965 70 5 Image Chart
2001 10 27 12 34.0 160.3 970 65 5 Image Chart
2001 10 27 18 36.5 161.8 975 60 4 Image Chart
2001 10 28 00 38.1 162.8 980 0 6 Image Chart
2001 10 28 06 40.7 164.9 980 0 6 Image Chart
2001 10 28 12 42.6 167.6 984 0 6 Image Chart
2001 10 28 18 43.0 170.3 988 0 6 Image Chart
2001 10 29 00 43.4 173.3 992 0 6 Image Chart
2001 10 29 06 44.0 176.8 996 0 6 Image Chart
2001 10 29 12 44.4 180.1 1000 0 6 Image Chart
Japan Meteorological Agency Best Track Data | Correction Date : 2002-01-24
< Typhoon 200121 2001 Season Typhoon 200123 >

Help